sensor_id;sensor_type;location;lat;lon;timestamp;P1;durP1;ratioP1;P2;durP2;ratioP2
29958;SDS011;16815;51.100;6.516;2022-10-18T00:02:10;7.03;;;6.23;;
29958;SDS011;16815;51.100;6.516;2022-10-18T00:04:36;7.63;;;6.07;;
29958;SDS011;16815;51.100;6.516;2022-10-18T00:07:02;6.33;;;5.33;;
29958;SDS011;16815;51.100;6.516;2022-10-18T00:09:28;6.23;;;5.07;;
29958;SDS011;16815;51.100;6.516;2022-10-18T00:11:54;6.70;;;5.17;;
29958;SDS011;16815;51.100;6.516;2022-10-18T00:14:20;6.30;;;4.70;;
29958;SDS011;16815;51.100;6.516;2022-10-18T00:16:46;5.23;;;4.73;;
29958;SDS011;16815;51.100;6.516;2022-10-18T00:19:12;6.70;;;4.80;;
29958;SDS011;16815;51.100;6.516;2022-10-18T00:21:38;6.47;;;4.20;;
29958;SDS011;16815;51.100;6.516;2022-10-18T00:24:04;4.57;;;4.10;;
29958;SDS011;16815;51.100;6.516;2022-10-18T00:26:31;5.50;;;4.40;;
29958;SDS011;16815;51.100;6.516;2022-10-18T00:28:58;6.43;;;3.87;;
29958;SDS011;16815;51.100;6.516;2022-10-18T00:31:25;4.40;;;3.90;;
29958;SDS011;16815;51.100;6.516;2022-10-18T00:33:55;4.13;;;3.73;;
29958;SDS011;16815;51.100;6.516;2022-10-18T00:36:22;5.73;;;4.30;;
29958;SDS011;16815;51.100;6.516;2022-10-18T00:38:48;4.20;;;3.80;;
29958;SDS011;16815;51.100;6.516;2022-10-18T00:41:16;4.73;;;4.20;;
29958;SDS011;16815;51.100;6.516;2022-10-18T00:43:59;5.00;;;4.47;;
29958;SDS011;16815;51.100;6.516;2022-10-18T00:46:27;9.47;;;6.37;;
29958;SDS011;16815;51.100;6.516;2022-10-18T00:48:54;9.43;;;6.17;;
29958;SDS011;16815;51.100;6.516;2022-10-18T00:51:20;9.87;;;6.30;;
29958;SDS011;16815;51.100;6.516;2022-10-18T00:53:46;11.63;;;6.17;;
29958;SDS011;16815;51.100;6.516;2022-10-18T00:56:12;10.60;;;6.03;;
29958;SDS011;16815;51.100;6.516;2022-10-18T00:58:39;10.07;;;6.60;;
29958;SDS011;16815;51.100;6.516;2022-10-18T01:01:06;8.60;;;6.10;;
29958;SDS011;16815;51.100;6.516;2022-10-18T01:03:31;13.33;;;6.67;;
29958;SDS011;16815;51.100;6.516;2022-10-18T01:05:57;7.80;;;6.77;;
29958;SDS011;16815;51.100;6.516;2022-10-18T01:11:12;10.80;;;6.50;;
29958;SDS011;16815;51.100;6.516;2022-10-18T01:21:30;8.20;;;6.90;;
29958;SDS011;16815;51.100;6.516;2022-10-18T01:24:10;6.60;;;5.67;;
29958;SDS011;16815;51.100;6.516;2022-10-18T01:29:47;6.80;;;6.10;;
29958;SDS011;16815;51.100;6.516;2022-10-18T01:32:16;8.07;;;6.67;;
29958;SDS011;16815;51.100;6.516;2022-10-18T01:34:44;7.77;;;6.50;;
29958;SDS011;16815;51.100;6.516;2022-10-18T01:37:13;7.00;;;6.20;;
29958;SDS011;16815;51.100;6.516;2022-10-18T01:39:40;8.83;;;7.10;;
29958;SDS011;16815;51.100;6.516;2022-10-18T01:42:08;7.50;;;6.70;;
29958;SDS011;16815;51.100;6.516;2022-10-18T01:44:35;8.13;;;5.87;;
29958;SDS011;16815;51.100;6.516;2022-10-18T01:47:04;9.03;;;6.77;;
29958;SDS011;16815;51.100;6.516;2022-10-18T01:49:31;9.97;;;6.33;;
29958;SDS011;16815;51.100;6.516;2022-10-18T01:51:57;7.53;;;6.27;;
29958;SDS011;16815;51.100;6.516;2022-10-18T01:54:25;9.90;;;6.67;;
29958;SDS011;16815;51.100;6.516;2022-10-18T01:57:05;6.67;;;6.07;;
29958;SDS011;16815;51.100;6.516;2022-10-18T02:05:23;8.93;;;6.90;;
29958;SDS011;16815;51.100;6.516;2022-10-18T02:10:35;7.10;;;6.40;;
29958;SDS011;16815;51.100;6.516;2022-10-18T02:13:03;7.37;;;6.37;;
29958;SDS011;16815;51.100;6.516;2022-10-18T02:15:30;10.53;;;6.80;;
29958;SDS011;16815;51.100;6.516;2022-10-18T02:17:57;7.57;;;6.77;;
29958;SDS011;16815;51.100;6.516;2022-10-18T02:20:23;8.63;;;6.33;;
29958;SDS011;16815;51.100;6.516;2022-10-18T02:22:50;7.40;;;5.77;;
29958;SDS011;16815;51.100;6.516;2022-10-18T02:25:23;8.97;;;7.13;;
29958;SDS011;16815;51.100;6.516;2022-10-18T02:27:50;7.13;;;6.20;;
29958;SDS011;16815;51.100;6.516;2022-10-18T02:30:16;7.03;;;6.27;;
29958;SDS011;16815;51.100;6.516;2022-10-18T02:33:16;9.20;;;6.93;;
29958;SDS011;16815;51.100;6.516;2022-10-18T02:35:35;9.80;;;7.43;;
29958;SDS011;16815;51.100;6.516;2022-10-18T02:38:03;7.53;;;6.83;;
29958;SDS011;16815;51.100;6.516;2022-10-18T02:40:30;10.03;;;7.27;;
29958;SDS011;16815;51.100;6.516;2022-10-18T02:42:56;9.10;;;7.07;;
29958;SDS011;16815;51.100;6.516;2022-10-18T02:45:22;10.10;;;7.57;;
29958;SDS011;16815;51.100;6.516;2022-10-18T02:47:49;10.30;;;7.90;;
29958;SDS011;16815;51.100;6.516;2022-10-18T02:50:15;8.93;;;7.53;;
29958;SDS011;16815;51.100;6.516;2022-10-18T02:52:41;11.87;;;9.10;;
29958;SDS011;16815;51.100;6.516;2022-10-18T02:55:07;10.13;;;8.53;;
29958;SDS011;16815;51.100;6.516;2022-10-18T02:57:33;10.93;;;7.93;;
29958;SDS011;16815;51.100;6.516;2022-10-18T02:59:59;11.43;;;8.60;;
29958;SDS011;16815;51.100;6.516;2022-10-18T03:02:25;13.30;;;8.70;;
29958;SDS011;16815;51.100;6.516;2022-10-18T03:04:51;11.63;;;9.03;;
29958;SDS011;16815;51.100;6.516;2022-10-18T03:07:17;13.57;;;9.27;;
29958;SDS011;16815;51.100;6.516;2022-10-18T03:09:43;16.47;;;9.27;;
29958;SDS011;16815;51.100;6.516;2022-10-18T03:12:09;11.97;;;9.50;;
29958;SDS011;16815;51.100;6.516;2022-10-18T03:14:35;15.43;;;10.40;;
29958;SDS011;16815;51.100;6.516;2022-10-18T03:17:01;17.13;;;10.17;;
29958;SDS011;16815;51.100;6.516;2022-10-18T03:19:27;20.60;;;10.63;;
29958;SDS011;16815;51.100;6.516;2022-10-18T03:21:53;15.63;;;10.23;;
29958;SDS011;16815;51.100;6.516;2022-10-18T03:24:19;17.13;;;10.47;;
29958;SDS011;16815;51.100;6.516;2022-10-18T03:26:45;16.80;;;11.00;;
29958;SDS011;16815;51.100;6.516;2022-10-18T03:29:11;16.50;;;9.67;;
29958;SDS011;16815;51.100;6.516;2022-10-18T03:31:37;18.77;;;9.83;;
29958;SDS011;16815;51.100;6.516;2022-10-18T03:34:03;17.53;;;9.80;;
29958;SDS011;16815;51.100;6.516;2022-10-18T03:36:29;16.67;;;9.97;;
29958;SDS011;16815;51.100;6.516;2022-10-18T03:38:55;18.03;;;10.20;;
29958;SDS011;16815;51.100;6.516;2022-10-18T03:41:21;16.53;;;10.07;;
29958;SDS011;16815;51.100;6.516;2022-10-18T03:43:47;16.27;;;9.73;;
29958;SDS011;16815;51.100;6.516;2022-10-18T03:46:13;16.97;;;9.70;;
29958;SDS011;16815;51.100;6.516;2022-10-18T03:48:39;15.20;;;10.67;;
29958;SDS011;16815;51.100;6.516;2022-10-18T03:51:04;15.27;;;9.97;;
29958;SDS011;16815;51.100;6.516;2022-10-18T03:53:30;13.63;;;8.97;;
29958;SDS011;16815;51.100;6.516;2022-10-18T03:55:56;16.13;;;9.30;;
29958;SDS011;16815;51.100;6.516;2022-10-18T03:58:22;12.50;;;9.80;;
29958;SDS011;16815;51.100;6.516;2022-10-18T04:00:51;17.50;;;9.17;;
29958;SDS011;16815;51.100;6.516;2022-10-18T04:03:18;15.03;;;10.17;;
29958;SDS011;16815;51.100;6.516;2022-10-18T04:05:44;13.83;;;9.13;;
29958;SDS011;16815;51.100;6.516;2022-10-18T04:08:11;13.77;;;8.60;;
29958;SDS011;16815;51.100;6.516;2022-10-18T04:10:37;15.40;;;8.83;;
29958;SDS011;16815;51.100;6.516;2022-10-18T04:13:04;15.43;;;9.60;;
29958;SDS011;16815;51.100;6.516;2022-10-18T04:15:30;14.33;;;8.60;;
29958;SDS011;16815;51.100;6.516;2022-10-18T04:17:56;14.57;;;9.90;;
29958;SDS011;16815;51.100;6.516;2022-10-18T04:20:23;16.47;;;9.73;;
29958;SDS011;16815;51.100;6.516;2022-10-18T04:22:49;13.80;;;8.80;;
29958;SDS011;16815;51.100;6.516;2022-10-18T04:25:15;12.70;;;9.40;;
29958;SDS011;16815;51.100;6.516;2022-10-18T04:27:41;15.47;;;10.60;;
29958;SDS011;16815;51.100;6.516;2022-10-18T04:30:07;14.27;;;10.77;;
29958;SDS011;16815;51.100;6.516;2022-10-18T04:32:33;14.17;;;10.50;;
29958;SDS011;16815;51.100;6.516;2022-10-18T04:34:59;14.30;;;10.87;;
29958;SDS011;16815;51.100;6.516;2022-10-18T04:37:25;16.10;;;12.10;;
29958;SDS011;16815;51.100;6.516;2022-10-18T04:39:51;16.20;;;11.50;;
29958;SDS011;16815;51.100;6.516;2022-10-18T04:42:17;14.63;;;12.07;;
29958;SDS011;16815;51.100;6.516;2022-10-18T04:44:43;16.07;;;11.40;;
29958;SDS011;16815;51.100;6.516;2022-10-18T04:47:09;13.90;;;12.30;;
29958;SDS011;16815;51.100;6.516;2022-10-18T04:49:35;21.53;;;13.97;;
29958;SDS011;16815;51.100;6.516;2022-10-18T04:52:01;18.23;;;13.27;;
29958;SDS011;16815;51.100;6.516;2022-10-18T04:54:27;17.97;;;13.17;;
29958;SDS011;16815;51.100;6.516;2022-10-18T04:56:53;17.70;;;13.30;;
29958;SDS011;16815;51.100;6.516;2022-10-18T04:59:22;15.87;;;12.83;;
29958;SDS011;16815;51.100;6.516;2022-10-18T05:01:48;16.77;;;12.73;;
29958;SDS011;16815;51.100;6.516;2022-10-18T05:04:14;17.80;;;14.23;;
29958;SDS011;16815;51.100;6.516;2022-10-18T05:06:40;17.27;;;14.50;;
29958;SDS011;16815;51.100;6.516;2022-10-18T05:09:06;16.17;;;13.93;;
29958;SDS011;16815;51.100;6.516;2022-10-18T05:11:32;16.93;;;14.17;;
29958;SDS011;16815;51.100;6.516;2022-10-18T05:13:58;16.53;;;14.60;;
29958;SDS011;16815;51.100;6.516;2022-10-18T05:16:24;18.03;;;15.47;;
29958;SDS011;16815;51.100;6.516;2022-10-18T05:18:50;17.47;;;14.80;;
29958;SDS011;16815;51.100;6.516;2022-10-18T05:21:15;17.10;;;14.63;;
29958;SDS011;16815;51.100;6.516;2022-10-18T05:23:41;16.30;;;14.57;;
29958;SDS011;16815;51.100;6.516;2022-10-18T05:26:07;17.93;;;15.73;;
29958;SDS011;16815;51.100;6.516;2022-10-18T05:28:34;18.03;;;16.07;;
29958;SDS011;16815;51.100;6.516;2022-10-18T05:31:01;19.13;;;17.13;;
29958;SDS011;16815;51.100;6.516;2022-10-18T05:33:27;18.40;;;16.33;;
29958;SDS011;16815;51.100;6.516;2022-10-18T05:35:53;22.43;;;17.73;;
29958;SDS011;16815;51.100;6.516;2022-10-18T05:38:19;22.20;;;17.00;;
29958;SDS011;16815;51.100;6.516;2022-10-18T05:40:45;19.37;;;15.40;;
29958;SDS011;16815;51.100;6.516;2022-10-18T05:43:11;17.50;;;15.07;;
29958;SDS011;16815;51.100;6.516;2022-10-18T05:45:37;20.57;;;16.77;;
29958;SDS011;16815;51.100;6.516;2022-10-18T05:48:03;21.77;;;17.83;;
29958;SDS011;16815;51.100;6.516;2022-10-18T05:50:31;17.60;;;15.67;;
29958;SDS011;16815;51.100;6.516;2022-10-18T05:52:57;21.23;;;16.57;;
29958;SDS011;16815;51.100;6.516;2022-10-18T05:55:23;22.27;;;18.10;;
29958;SDS011;16815;51.100;6.516;2022-10-18T05:57:49;17.60;;;15.70;;
29958;SDS011;16815;51.100;6.516;2022-10-18T06:00:16;19.30;;;16.60;;
29958;SDS011;16815;51.100;6.516;2022-10-18T06:02:42;19.70;;;17.07;;
29958;SDS011;16815;51.100;6.516;2022-10-18T06:05:08;21.87;;;16.47;;
29958;SDS011;16815;51.100;6.516;2022-10-18T06:07:34;20.60;;;16.77;;
29958;SDS011;16815;51.100;6.516;2022-10-18T06:10:00;19.73;;;16.97;;
29958;SDS011;16815;51.100;6.516;2022-10-18T06:12:26;19.63;;;16.53;;
29958;SDS011;16815;51.100;6.516;2022-10-18T06:14:52;19.90;;;16.10;;
29958;SDS011;16815;51.100;6.516;2022-10-18T06:17:18;18.90;;;16.13;;
29958;SDS011;16815;51.100;6.516;2022-10-18T06:19:44;19.53;;;16.30;;
29958;SDS011;16815;51.100;6.516;2022-10-18T06:22:10;17.80;;;15.47;;
29958;SDS011;16815;51.100;6.516;2022-10-18T06:24:36;21.07;;;16.33;;
29958;SDS011;16815;51.100;6.516;2022-10-18T06:27:02;19.90;;;15.97;;
29958;SDS011;16815;51.100;6.516;2022-10-18T06:29:33;20.23;;;15.97;;
29958;SDS011;16815;51.100;6.516;2022-10-18T06:31:58;20.67;;;17.37;;
29958;SDS011;16815;51.100;6.516;2022-10-18T06:34:24;20.77;;;17.23;;
29958;SDS011;16815;51.100;6.516;2022-10-18T06:36:50;18.67;;;15.67;;
29958;SDS011;16815;51.100;6.516;2022-10-18T06:39:16;18.20;;;15.03;;
29958;SDS011;16815;51.100;6.516;2022-10-18T06:41:42;17.63;;;15.63;;
29958;SDS011;16815;51.100;6.516;2022-10-18T06:44:08;21.30;;;17.23;;
29958;SDS011;16815;51.100;6.516;2022-10-18T06:46:41;19.20;;;16.57;;
29958;SDS011;16815;51.100;6.516;2022-10-18T06:49:07;19.37;;;15.80;;
29958;SDS011;16815;51.100;6.516;2022-10-18T06:51:33;19.63;;;15.43;;
29958;SDS011;16815;51.100;6.516;2022-10-18T06:53:59;18.43;;;15.30;;
29958;SDS011;16815;51.100;6.516;2022-10-18T06:56:25;18.87;;;15.77;;
29958;SDS011;16815;51.100;6.516;2022-10-18T06:58:51;19.47;;;15.57;;
29958;SDS011;16815;51.100;6.516;2022-10-18T07:01:17;22.30;;;16.63;;
29958;SDS011;16815;51.100;6.516;2022-10-18T07:03:44;20.43;;;16.23;;
29958;SDS011;16815;51.100;6.516;2022-10-18T07:06:11;23.00;;;16.60;;
29958;SDS011;16815;51.100;6.516;2022-10-18T07:08:37;20.00;;;15.90;;
29958;SDS011;16815;51.100;6.516;2022-10-18T07:11:04;22.27;;;15.53;;
29958;SDS011;16815;51.100;6.516;2022-10-18T07:13:31;20.47;;;16.40;;
29958;SDS011;16815;51.100;6.516;2022-10-18T07:16:05;17.40;;;14.43;;
29958;SDS011;16815;51.100;6.516;2022-10-18T07:18:34;19.80;;;16.57;;
29958;SDS011;16815;51.100;6.516;2022-10-18T07:21:01;23.33;;;17.80;;
29958;SDS011;16815;51.100;6.516;2022-10-18T07:23:27;22.83;;;16.57;;
29958;SDS011;16815;51.100;6.516;2022-10-18T07:25:53;22.63;;;17.10;;
29958;SDS011;16815;51.100;6.516;2022-10-18T07:28:19;27.07;;;18.53;;
29958;SDS011;16815;51.100;6.516;2022-10-18T07:30:45;22.47;;;18.27;;
29958;SDS011;16815;51.100;6.516;2022-10-18T07:33:11;23.43;;;16.23;;
29958;SDS011;16815;51.100;6.516;2022-10-18T07:35:37;22.20;;;17.73;;
29958;SDS011;16815;51.100;6.516;2022-10-18T07:38:03;23.93;;;18.83;;
29958;SDS011;16815;51.100;6.516;2022-10-18T07:40:29;22.37;;;18.63;;
29958;SDS011;16815;51.100;6.516;2022-10-18T07:42:55;26.40;;;18.67;;
29958;SDS011;16815;51.100;6.516;2022-10-18T07:45:21;22.60;;;18.30;;
29958;SDS011;16815;51.100;6.516;2022-10-18T07:47:47;23.73;;;18.47;;
29958;SDS011;16815;51.100;6.516;2022-10-18T07:50:13;26.77;;;18.80;;
29958;SDS011;16815;51.100;6.516;2022-10-18T07:52:39;26.53;;;19.83;;
29958;SDS011;16815;51.100;6.516;2022-10-18T07:55:05;27.53;;;17.53;;
29958;SDS011;16815;51.100;6.516;2022-10-18T07:57:31;29.00;;;19.33;;
29958;SDS011;16815;51.100;6.516;2022-10-18T07:59:57;26.20;;;19.53;;
29958;SDS011;16815;51.100;6.516;2022-10-18T08:02:23;27.20;;;19.37;;
29958;SDS011;16815;51.100;6.516;2022-10-18T08:04:48;28.27;;;19.83;;
29958;SDS011;16815;51.100;6.516;2022-10-18T08:07:15;29.27;;;20.13;;
29958;SDS011;16815;51.100;6.516;2022-10-18T08:09:40;30.87;;;20.80;;
29958;SDS011;16815;51.100;6.516;2022-10-18T08:12:06;31.87;;;21.63;;
29958;SDS011;16815;51.100;6.516;2022-10-18T08:14:32;30.87;;;21.97;;
29958;SDS011;16815;51.100;6.516;2022-10-18T08:16:58;31.47;;;21.03;;
29958;SDS011;16815;51.100;6.516;2022-10-18T08:19:24;33.70;;;23.97;;
29958;SDS011;16815;51.100;6.516;2022-10-18T08:21:50;34.27;;;23.73;;
29958;SDS011;16815;51.100;6.516;2022-10-18T08:24:16;33.33;;;23.57;;
29958;SDS011;16815;51.100;6.516;2022-10-18T08:26:42;39.93;;;25.87;;
29958;SDS011;16815;51.100;6.516;2022-10-18T08:29:08;36.03;;;23.87;;
29958;SDS011;16815;51.100;6.516;2022-10-18T08:31:35;40.40;;;24.37;;
29958;SDS011;16815;51.100;6.516;2022-10-18T08:34:01;36.67;;;25.23;;
29958;SDS011;16815;51.100;6.516;2022-10-18T08:36:27;39.67;;;25.10;;
29958;SDS011;16815;51.100;6.516;2022-10-18T08:38:53;36.47;;;24.37;;
29958;SDS011;16815;51.100;6.516;2022-10-18T08:46:33;35.27;;;24.67;;
29958;SDS011;16815;51.100;6.516;2022-10-18T08:49:00;39.23;;;24.07;;
29958;SDS011;16815;51.100;6.516;2022-10-18T08:52:00;33.17;;;23.27;;
29958;SDS011;16815;51.100;6.516;2022-10-18T08:57:20;32.83;;;23.33;;
29958;SDS011;16815;51.100;6.516;2022-10-18T08:59:46;39.57;;;24.30;;
29958;SDS011;16815;51.100;6.516;2022-10-18T09:04:44;31.20;;;22.97;;
29958;SDS011;16815;51.100;6.516;2022-10-18T09:09:54;33.73;;;24.17;;
29958;SDS011;16815;51.100;6.516;2022-10-18T09:12:28;35.87;;;24.10;;
29958;SDS011;16815;51.100;6.516;2022-10-18T09:17:30;42.53;;;28.37;;
29958;SDS011;16815;51.100;6.516;2022-10-18T09:20:12;43.67;;;29.00;;
29958;SDS011;16815;51.100;6.516;2022-10-18T09:22:58;42.43;;;29.60;;
29958;SDS011;16815;51.100;6.516;2022-10-18T09:25:42;36.97;;;27.37;;
29958;SDS011;16815;51.100;6.516;2022-10-18T09:28:18;39.70;;;25.77;;
29958;SDS011;16815;51.100;6.516;2022-10-18T09:30:53;38.93;;;26.80;;
29958;SDS011;16815;51.100;6.516;2022-10-18T09:33:34;39.80;;;28.03;;
29958;SDS011;16815;51.100;6.516;2022-10-18T09:36:04;38.50;;;28.13;;
29958;SDS011;16815;51.100;6.516;2022-10-18T09:38:45;46.37;;;29.67;;
29958;SDS011;16815;51.100;6.516;2022-10-18T09:41:15;38.67;;;28.33;;
29958;SDS011;16815;51.100;6.516;2022-10-18T09:46:18;40.57;;;28.90;;
29958;SDS011;16815;51.100;6.516;2022-10-18T09:48:52;40.80;;;29.07;;
29958;SDS011;16815;51.100;6.516;2022-10-18T09:51:20;38.07;;;27.40;;
29958;SDS011;16815;51.100;6.516;2022-10-18T09:54:09;36.70;;;28.50;;
29958;SDS011;16815;51.100;6.516;2022-10-18T10:00:13;35.67;;;26.77;;
29958;SDS011;16815;51.100;6.516;2022-10-18T10:02:11;36.13;;;24.07;;
29958;SDS011;16815;51.100;6.516;2022-10-18T10:04:37;36.37;;;27.00;;
29958;SDS011;16815;51.100;6.516;2022-10-18T10:07:06;40.13;;;27.97;;
29958;SDS011;16815;51.100;6.516;2022-10-18T10:09:38;34.63;;;25.80;;
29958;SDS011;16815;51.100;6.516;2022-10-18T10:12:21;35.47;;;25.33;;
29958;SDS011;16815;51.100;6.516;2022-10-18T10:14:48;34.87;;;25.37;;
29958;SDS011;16815;51.100;6.516;2022-10-18T10:17:22;33.53;;;25.27;;
29958;SDS011;16815;51.100;6.516;2022-10-18T10:19:56;31.00;;;24.63;;
29958;SDS011;16815;51.100;6.516;2022-10-18T10:22:25;34.23;;;24.37;;
29958;SDS011;16815;51.100;6.516;2022-10-18T10:24:52;34.07;;;25.03;;
29958;SDS011;16815;51.100;6.516;2022-10-18T10:32:14;30.63;;;22.97;;
29958;SDS011;16815;51.100;6.516;2022-10-18T10:34:40;30.03;;;22.43;;
29958;SDS011;16815;51.100;6.516;2022-10-18T10:37:52;31.93;;;22.30;;
29958;SDS011;16815;51.100;6.516;2022-10-18T10:42:47;28.77;;;21.23;;
29958;SDS011;16815;51.100;6.516;2022-10-18T10:45:14;31.87;;;22.07;;
29958;SDS011;16815;51.100;6.516;2022-10-18T10:47:40;28.60;;;20.50;;
29958;SDS011;16815;51.100;6.516;2022-10-18T10:50:12;26.97;;;21.23;;
29958;SDS011;16815;51.100;6.516;2022-10-18T10:52:38;30.90;;;22.37;;
29958;SDS011;16815;51.100;6.516;2022-10-18T10:55:14;30.03;;;20.87;;
29958;SDS011;16815;51.100;6.516;2022-10-18T10:57:42;25.70;;;19.90;;
29958;SDS011;16815;51.100;6.516;2022-10-18T11:00:11;33.20;;;23.53;;
29958;SDS011;16815;51.100;6.516;2022-10-18T11:03:04;28.53;;;20.97;;
29958;SDS011;16815;51.100;6.516;2022-10-18T11:05:30;29.70;;;21.50;;
29958;SDS011;16815;51.100;6.516;2022-10-18T11:08:07;31.03;;;21.83;;
29958;SDS011;16815;51.100;6.516;2022-10-18T11:10:37;30.67;;;22.57;;
29958;SDS011;16815;51.100;6.516;2022-10-18T11:13:17;28.67;;;21.20;;
29958;SDS011;16815;51.100;6.516;2022-10-18T11:15:49;30.03;;;20.87;;
29958;SDS011;16815;51.100;6.516;2022-10-18T11:18:24;30.77;;;21.67;;
29958;SDS011;16815;51.100;6.516;2022-10-18T11:20:54;30.07;;;20.87;;
29958;SDS011;16815;51.100;6.516;2022-10-18T11:23:20;25.23;;;19.43;;
29958;SDS011;16815;51.100;6.516;2022-10-18T11:38:52;24.83;;;18.40;;
29958;SDS011;16815;51.100;6.516;2022-10-18T11:46:58;24.20;;;16.20;;
29958;SDS011;16815;51.100;6.516;2022-10-18T12:00:22;22.37;;;15.43;;
29958;SDS011;16815;51.100;6.516;2022-10-18T12:05:16;22.67;;;16.63;;
29958;SDS011;16815;51.100;6.516;2022-10-18T12:07:44;21.50;;;16.37;;
29958;SDS011;16815;51.100;6.516;2022-10-18T12:10:16;21.30;;;15.60;;
29958;SDS011;16815;51.100;6.516;2022-10-18T12:12:48;21.53;;;15.63;;
29958;SDS011;16815;51.100;6.516;2022-10-18T12:15:17;23.37;;;16.20;;
29958;SDS011;16815;51.100;6.516;2022-10-18T12:17:44;21.73;;;15.90;;
29958;SDS011;16815;51.100;6.516;2022-10-18T12:20:13;20.93;;;15.47;;
29958;SDS011;16815;51.100;6.516;2022-10-18T12:23:02;22.20;;;16.27;;
29958;SDS011;16815;51.100;6.516;2022-10-18T12:25:28;22.87;;;15.90;;
29958;SDS011;16815;51.100;6.516;2022-10-18T12:27:56;18.37;;;14.67;;
29958;SDS011;16815;51.100;6.516;2022-10-18T12:30:30;17.43;;;13.40;;
29958;SDS011;16815;51.100;6.516;2022-10-18T12:33:04;21.33;;;14.07;;
29958;SDS011;16815;51.100;6.516;2022-10-18T12:35:33;20.30;;;14.70;;
29958;SDS011;16815;51.100;6.516;2022-10-18T12:40:46;21.97;;;14.80;;
29958;SDS011;16815;51.100;6.516;2022-10-18T12:43:23;24.73;;;13.67;;
29958;SDS011;16815;51.100;6.516;2022-10-18T12:45:56;19.90;;;14.83;;
29958;SDS011;16815;51.100;6.516;2022-10-18T12:48:28;21.63;;;14.43;;
29958;SDS011;16815;51.100;6.516;2022-10-18T12:50:59;17.80;;;13.10;;
29958;SDS011;16815;51.100;6.516;2022-10-18T12:53:25;21.63;;;15.07;;
29958;SDS011;16815;51.100;6.516;2022-10-18T12:55:52;23.13;;;15.07;;
29958;SDS011;16815;51.100;6.516;2022-10-18T12:58:28;22.53;;;15.33;;
29958;SDS011;16815;51.100;6.516;2022-10-18T13:00:55;21.87;;;15.30;;
29958;SDS011;16815;51.100;6.516;2022-10-18T13:03:27;23.37;;;15.30;;
29958;SDS011;16815;51.100;6.516;2022-10-18T13:05:58;24.60;;;15.50;;
29958;SDS011;16815;51.100;6.516;2022-10-18T13:13:28;20.67;;;14.30;;
29958;SDS011;16815;51.100;6.516;2022-10-18T13:15:58;18.40;;;14.10;;
29958;SDS011;16815;51.100;6.516;2022-10-18T13:18:43;18.90;;;13.40;;
29958;SDS011;16815;51.100;6.516;2022-10-18T13:23:46;17.47;;;12.50;;
29958;SDS011;16815;51.100;6.516;2022-10-18T13:26:20;17.53;;;11.63;;
29958;SDS011;16815;51.100;6.516;2022-10-18T13:33:42;16.23;;;10.60;;
29958;SDS011;16815;51.100;6.516;2022-10-18T13:38:42;16.97;;;9.80;;
29958;SDS011;16815;51.100;6.516;2022-10-18T13:41:12;16.37;;;10.67;;
29958;SDS011;16815;51.100;6.516;2022-10-18T13:47:07;14.47;;;9.03;;
29958;SDS011;16815;51.100;6.516;2022-10-18T13:57:15;13.30;;;7.57;;
29958;SDS011;16815;51.100;6.516;2022-10-18T14:07:35;12.57;;;7.50;;
29958;SDS011;16815;51.100;6.516;2022-10-18T14:10:02;12.67;;;6.57;;
29958;SDS011;16815;51.100;6.516;2022-10-18T14:12:37;14.63;;;7.33;;
29958;SDS011;16815;51.100;6.516;2022-10-18T14:15:15;12.33;;;6.50;;
29958;SDS011;16815;51.100;6.516;2022-10-18T14:17:51;15.53;;;7.10;;
29958;SDS011;16815;51.100;6.516;2022-10-18T14:25:43;12.10;;;6.40;;
29958;SDS011;16815;51.100;6.516;2022-10-18T14:28:13;12.77;;;6.63;;
29958;SDS011;16815;51.100;6.516;2022-10-18T14:33:23;10.03;;;6.53;;
29958;SDS011;16815;51.100;6.516;2022-10-18T14:36:04;10.23;;;6.57;;
29958;SDS011;16815;51.100;6.516;2022-10-18T14:38:31;11.83;;;6.33;;
29958;SDS011;16815;51.100;6.516;2022-10-18T14:41:05;9.90;;;5.73;;
29958;SDS011;16815;51.100;6.516;2022-10-18T14:43:31;10.20;;;5.77;;
29958;SDS011;16815;51.100;6.516;2022-10-18T14:46:07;12.87;;;6.17;;
29958;SDS011;16815;51.100;6.516;2022-10-18T14:48:33;11.60;;;6.10;;
29958;SDS011;16815;51.100;6.516;2022-10-18T14:50:59;13.00;;;6.97;;
29958;SDS011;16815;51.100;6.516;2022-10-18T14:53:29;14.07;;;7.30;;
29958;SDS011;16815;51.100;6.516;2022-10-18T14:56:00;11.77;;;6.17;;
29958;SDS011;16815;51.100;6.516;2022-10-18T14:58:28;11.50;;;6.77;;
29958;SDS011;16815;51.100;6.516;2022-10-18T15:00:54;11.30;;;6.40;;
29958;SDS011;16815;51.100;6.516;2022-10-18T15:03:20;12.30;;;6.23;;
29958;SDS011;16815;51.100;6.516;2022-10-18T15:08:18;8.83;;;5.70;;
29958;SDS011;16815;51.100;6.516;2022-10-18T15:10:44;14.77;;;6.20;;
29958;SDS011;16815;51.100;6.516;2022-10-18T15:13:10;14.20;;;5.73;;
29958;SDS011;16815;51.100;6.516;2022-10-18T15:15:37;15.03;;;5.53;;
29958;SDS011;16815;51.100;6.516;2022-10-18T15:18:04;11.73;;;5.70;;
29958;SDS011;16815;51.100;6.516;2022-10-18T15:20:34;13.20;;;5.07;;
29958;SDS011;16815;51.100;6.516;2022-10-18T15:23:25;12.83;;;5.83;;
29958;SDS011;16815;51.100;6.516;2022-10-18T15:25:51;12.83;;;5.80;;
29958;SDS011;16815;51.100;6.516;2022-10-18T15:28:26;13.07;;;5.30;;
29958;SDS011;16815;51.100;6.516;2022-10-18T15:30:53;13.17;;;5.53;;
29958;SDS011;16815;51.100;6.516;2022-10-18T15:33:22;12.07;;;5.60;;
29958;SDS011;16815;51.100;6.516;2022-10-18T15:35:48;10.40;;;5.90;;
29958;SDS011;16815;51.100;6.516;2022-10-18T15:38:24;11.07;;;5.70;;
29958;SDS011;16815;51.100;6.516;2022-10-18T15:40:50;10.60;;;5.70;;
29958;SDS011;16815;51.100;6.516;2022-10-18T15:45:58;14.70;;;6.80;;
29958;SDS011;16815;51.100;6.516;2022-10-18T15:48:32;15.20;;;5.97;;
29958;SDS011;16815;51.100;6.516;2022-10-18T15:51:00;9.87;;;5.53;;
29958;SDS011;16815;51.100;6.516;2022-10-18T15:56:01;12.73;;;5.53;;
29958;SDS011;16815;51.100;6.516;2022-10-18T15:58:29;13.57;;;5.67;;
29958;SDS011;16815;51.100;6.516;2022-10-18T16:01:01;11.10;;;5.90;;
29958;SDS011;16815;51.100;6.516;2022-10-18T16:03:29;12.70;;;6.10;;
29958;SDS011;16815;51.100;6.516;2022-10-18T16:05:58;11.30;;;5.63;;
29958;SDS011;16815;51.100;6.516;2022-10-18T16:08:28;11.87;;;5.57;;
29958;SDS011;16815;51.100;6.516;2022-10-18T16:11:01;12.53;;;6.13;;
29958;SDS011;16815;51.100;6.516;2022-10-18T16:13:27;10.60;;;5.90;;
29958;SDS011;16815;51.100;6.516;2022-10-18T16:15:53;11.90;;;5.93;;
29958;SDS011;16815;51.100;6.516;2022-10-18T16:18:20;12.80;;;6.03;;
29958;SDS011;16815;51.100;6.516;2022-10-18T16:20:46;12.10;;;6.07;;
29958;SDS011;16815;51.100;6.516;2022-10-18T16:23:15;13.67;;;6.30;;
29958;SDS011;16815;51.100;6.516;2022-10-18T16:25:41;12.03;;;5.93;;
29958;SDS011;16815;51.100;6.516;2022-10-18T16:28:10;13.23;;;6.33;;
29958;SDS011;16815;51.100;6.516;2022-10-18T16:30:37;14.93;;;6.53;;
29958;SDS011;16815;51.100;6.516;2022-10-18T16:33:03;12.57;;;5.97;;
29958;SDS011;16815;51.100;6.516;2022-10-18T16:35:31;9.87;;;5.63;;
29958;SDS011;16815;51.100;6.516;2022-10-18T16:37:58;9.77;;;6.07;;
29958;SDS011;16815;51.100;6.516;2022-10-18T16:40:24;10.30;;;5.77;;
29958;SDS011;16815;51.100;6.516;2022-10-18T16:42:50;10.20;;;6.03;;
29958;SDS011;16815;51.100;6.516;2022-10-18T16:45:16;11.40;;;5.93;;
29958;SDS011;16815;51.100;6.516;2022-10-18T16:47:42;12.73;;;9.47;;
29958;SDS011;16815;51.100;6.516;2022-10-18T16:50:12;13.87;;;9.23;;
29958;SDS011;16815;51.100;6.516;2022-10-18T16:52:39;14.00;;;8.40;;